Time;durP1;ratioP1;P1;durP2;ratioP2;P2;SDS_P1;SDS_P2;PMS_P1;PMS_P2;Temp;Humidity;BMP_temperature;BMP_pressure;BME280_temperature;BME280_humidity;BME280_pressure;Samples;Min_cycle;Max_cycle;Signal;HPM_P1;HPM_P2
2021/06/17 00:00:11;;;;;;;12.55;10.93;;;20.70;99.90;;;;;;5074060;28;20208;-68
2021/06/17 00:02:41;;;;;;;12.30;11.25;;;20.60;99.90;;;;;;5074595;28;20185;-67
2021/06/17 00:05:11;;;;;;;12.00;10.90;;;20.60;99.90;;;;;;5074364;28;20223;-68
2021/06/17 00:07:40;;;;;;;11.57;10.57;;;20.60;99.90;;;;;;5074069;28;20665;-68
2021/06/17 00:10:11;;;;;;;12.60;11.30;;;20.50;99.90;;;;;;5074382;28;20218;-67
2021/06/17 00:12:39;;;;;;;11.90;10.70;;;20.50;99.90;;;;;;5074423;28;20291;-67
2021/06/17 00:15:11;;;;;;;11.73;10.68;;;20.50;99.90;;;;;;5074058;28;20203;-67
2021/06/17 00:17:43;;;;;;;12.73;11.52;;;20.40;99.90;;;;;;5074299;28;20191;-67
2021/06/17 00:20:12;;;;;;;12.10;11.00;;;20.40;99.90;;;;;;5073645;28;20207;-67
2021/06/17 00:22:40;;;;;;;12.02;11.05;;;20.40;99.90;;;;;;5074031;28;20226;-66
2021/06/17 00:25:09;;;;;;;12.27;11.18;;;20.40;99.90;;;;;;5074106;28;20291;-67
2021/06/17 00:27:37;;;;;;;13.40;12.13;;;20.40;99.90;;;;;;5073889;28;20232;-67
2021/06/17 00:30:08;;;;;;;13.30;12.00;;;20.40;99.90;;;;;;5073522;28;20236;-68
2021/06/17 00:32:36;;;;;;;12.43;11.43;;;20.40;99.90;;;;;;5073670;28;20649;-68
2021/06/17 00:35:08;;;;;;;12.32;11.23;;;20.30;99.90;;;;;;5073788;28;20207;-68
2021/06/17 00:37:37;;;;;;;13.05;11.85;;;20.30;99.90;;;;;;5073875;28;20508;-67
2021/06/17 00:40:07;;;;;;;13.07;11.95;;;20.30;99.90;;;;;;5073916;28;20222;-67
2021/06/17 00:42:36;;;;;;;13.75;12.45;;;20.20;99.90;;;;;;5073427;28;20227;-67
2021/06/17 00:45:06;;;;;;;13.35;12.23;;;20.30;99.90;;;;;;5086903;28;20674;-67
2021/06/17 00:47:35;;;;;;;13.38;12.20;;;20.30;99.90;;;;;;5093736;28;20541;-67
2021/06/17 00:50:03;;;;;;;13.20;11.98;;;20.30;99.90;;;;;;5093767;28;20202;-66
2021/06/17 00:52:32;;;;;;;13.75;12.45;;;20.20;99.90;;;;;;5093624;28;20295;-68
2021/06/17 00:55:00;;;;;;;13.55;12.25;;;20.20;99.90;;;;;;5093391;28;20747;-67
2021/06/17 00:57:28;;;;;;;13.32;12.23;;;20.10;99.90;;;;;;5093781;28;20303;-67
2021/06/17 00:59:56;;;;;;;13.05;11.95;;;20.10;99.90;;;;;;5092552;28;20222;-67
2021/06/17 01:02:24;;;;;;;14.75;13.15;;;20.10;99.90;;;;;;5093248;28;20653;-67
2021/06/17 01:04:52;;;;;;;13.82;12.43;;;20.00;99.90;;;;;;5093487;28;20291;-66
2021/06/17 01:07:34;;;;;;;13.30;12.20;;;20.00;99.90;;;;;;5093455;28;20220;-66
2021/06/17 01:10:09;;;;;;;12.98;11.77;;;20.00;99.90;;;;;;5093416;28;20266;-66
2021/06/17 01:12:48;;;;;;;13.80;12.70;;;20.00;99.90;;;;;;5093165;28;20620;-67
2021/06/17 01:15:19;;;;;;;12.73;11.52;;;20.00;99.90;;;;;;5093173;28;20271;-67
2021/06/17 01:17:56;;;;;;;13.23;12.13;;;20.00;99.90;;;;;;5093264;28;20186;-67
2021/06/17 01:20:29;;;;;;;12.48;11.48;;;20.00;99.90;;;;;;5093237;28;20289;-67
2021/06/17 01:23:13;;;;;;;12.95;11.85;;;19.90;99.90;;;;;;5093019;28;20234;-66
2021/06/17 01:26:09;;;;;;;13.13;12.02;;;20.00;99.90;;;;;;5093228;28;20279;-67
2021/06/17 01:28:40;;;;;;;12.68;11.57;;;19.90;99.90;;;;;;5092460;28;20339;-66
2021/06/17 01:31:12;;;;;;;13.45;12.25;;;19.90;99.90;;;;;;5092978;28;20187;-67
2021/06/17 01:33:44;;;;;;;12.65;11.63;;;19.80;99.90;;;;;;5092718;28;20195;-67
2021/06/17 01:36:17;;;;;;;13.43;12.25;;;19.80;99.90;;;;;;5092659;28;20632;-66
2021/06/17 01:38:49;;;;;;;13.35;12.15;;;19.80;99.90;;;;;;5092762;28;20273;-67
2021/06/17 01:41:20;;;;;;;12.75;11.65;;;19.70;99.90;;;;;;5092857;28;20191;-67
2021/06/17 01:43:50;;;;;;;12.80;11.65;;;19.70;99.90;;;;;;5089001;28;20655;-68
2021/06/17 01:46:19;;;;;;;12.88;11.68;;;19.60;99.90;;;;;;5072385;28;20295;-67
2021/06/17 01:48:51;;;;;;;13.13;11.82;;;19.60;99.90;;;;;;5072182;28;20573;-66
2021/06/17 01:51:20;;;;;;;12.40;11.20;;;19.50;99.90;;;;;;5072450;28;20191;-67
2021/06/17 01:53:49;;;;;;;12.93;11.85;;;19.50;99.90;;;;;;5072031;28;20675;-67
2021/06/17 01:56:20;;;;;;;12.55;11.52;;;19.50;99.90;;;;;;5072134;28;20550;-66
2021/06/17 01:58:50;;;;;;;12.55;11.55;;;19.40;99.90;;;;;;5072142;28;20184;-67
2021/06/17 02:01:19;;;;;;;13.27;11.98;;;19.40;99.90;;;;;;5071668;28;20215;-68
2021/06/17 02:03:48;;;;;;;12.52;11.50;;;19.40;99.90;;;;;;5071911;28;20200;-66
2021/06/17 02:06:17;;;;;;;13.07;11.77;;;19.40;99.90;;;;;;5072092;28;20200;-66
2021/06/17 02:08:46;;;;;;;12.60;11.50;;;19.40;99.90;;;;;;5071936;28;20204;-67
2021/06/17 02:11:16;;;;;;;13.32;12.05;;;19.40;99.90;;;;;;5071693;28;20776;-67
2021/06/17 02:13:44;;;;;;;12.68;11.57;;;19.30;99.90;;;;;;5072156;28;20192;-66
2021/06/17 02:16:15;;;;;;;12.45;11.45;;;19.30;99.90;;;;;;5072003;28;20197;-67
2021/06/17 02:18:46;;;;;;;12.82;11.55;;;19.30;99.90;;;;;;5071725;28;20196;-67
2021/06/17 02:21:15;;;;;;;12.63;11.52;;;19.30;99.90;;;;;;5072065;28;20185;-67
2021/06/17 02:23:48;;;;;;;12.00;10.85;;;19.20;99.90;;;;;;5071737;28;20216;-68
2021/06/17 02:26:17;;;;;;;12.55;11.48;;;19.20;99.90;;;;;;5071627;28;20289;-67
2021/06/17 02:28:48;;;;;;;11.98;10.70;;;19.20;99.90;;;;;;5071438;28;20302;-67
2021/06/17 02:31:20;;;;;;;12.13;11.00;;;19.20;99.90;;;;;;5072012;28;20181;-67
2021/06/17 02:33:49;;;;;;;11.85;10.75;;;19.20;99.90;;;;;;5071873;28;20235;-67
2021/06/17 02:36:22;;;;;;;12.00;10.90;;;19.10;99.90;;;;;;5071627;28;20682;-68
2021/06/17 02:38:52;;;;;;;11.77;10.63;;;19.10;99.90;;;;;;5071387;28;20189;-66
2021/06/17 02:41:23;;;;;;;11.95;10.70;;;19.10;99.90;;;;;;5071697;28;20207;-67
2021/06/17 02:43:54;;;;;;;12.40;11.05;;;19.10;99.90;;;;;;5075003;28;20300;-68
2021/06/17 02:46:24;;;;;;;12.15;11.00;;;19.10;99.90;;;;;;5092073;28;20286;-67
2021/06/17 02:48:53;;;;;;;12.30;11.30;;;19.10;99.90;;;;;;5091929;28;20337;-67
2021/06/17 02:51:21;;;;;;;11.68;10.70;;;19.10;99.90;;;;;;5091804;28;20207;-67
2021/06/17 02:53:50;;;;;;;11.73;10.77;;;19.10;99.90;;;;;;5091434;28;20192;-67
2021/06/17 02:56:24;;;;;;;11.18;10.27;;;19.10;99.90;;;;;;5091899;28;20227;-68
2021/06/17 02:59:07;;;;;;;11.15;10.18;;;19.10;99.90;;;;;;5091695;28;20283;-67
2021/06/17 03:01:44;;;;;;;11.43;10.32;;;19.10;99.90;;;;;;5091993;28;20188;-66
2021/06/17 03:04:19;;;;;;;10.63;9.65;;;19.10;99.90;;;;;;5091431;28;20200;-68
2021/06/17 03:06:50;;;;;;;12.00;10.90;;;19.10;99.90;;;;;;5091793;28;20191;-66
2021/06/17 03:09:23;;;;;;;11.13;10.13;;;19.10;99.90;;;;;;5091596;28;20184;-67
2021/06/17 03:11:55;;;;;;;10.40;9.18;;;19.10;99.90;;;;;;5091440;28;20687;-68
2021/06/17 03:14:27;;;;;;;11.05;10.02;;;19.10;99.90;;;;;;5091261;28;20808;-67
2021/06/17 03:16:58;;;;;;;10.60;9.80;;;19.00;99.90;;;;;;5091760;28;20194;-67
2021/06/17 03:19:28;;;;;;;11.05;10.05;;;19.10;99.90;;;;;;5091427;28;20192;-66
2021/06/17 03:22:01;;;;;;;10.68;9.75;;;19.10;99.90;;;;;;5092541;28;20276;-67
2021/06/17 03:24:34;;;;;;;10.73;9.75;;;19.10;99.90;;;;;;5095322;28;20279;-66
2021/06/17 03:27:02;;;;;;;10.55;9.65;;;19.10;99.90;;;;;;5094952;28;20628;-67
2021/06/17 03:29:35;;;;;;;10.30;9.40;;;19.20;99.90;;;;;;5095071;28;20184;-66
2021/06/17 03:32:07;;;;;;;9.90;9.10;;;19.20;99.90;;;;;;5095177;28;20185;-66
2021/06/17 03:34:36;;;;;;;10.65;9.63;;;19.20;99.90;;;;;;5095242;28;20212;-66
2021/06/17 03:37:05;;;;;;;9.82;8.93;;;19.30;99.90;;;;;;5094896;28;20218;-67
2021/06/17 03:39:34;;;;;;;10.43;9.43;;;19.30;99.90;;;;;;5094995;28;20295;-66
2021/06/17 03:42:03;;;;;;;11.05;9.38;;;19.30;99.90;;;;;;5095074;28;20200;-66
2021/06/17 03:44:31;;;;;;;9.93;9.07;;;19.40;99.90;;;;;;5085273;28;20300;-66
2021/06/17 03:47:00;;;;;;;9.77;8.98;;;19.40;99.90;;;;;;5074635;28;20201;-67
2021/06/17 03:49:30;;;;;;;10.05;9.05;;;19.40;99.90;;;;;;5074683;28;20204;-67
2021/06/17 03:52:01;;;;;;;10.20;9.20;;;19.50;99.90;;;;;;5074540;28;20315;-67
2021/06/17 03:54:30;;;;;;;9.52;8.65;;;19.50;99.90;;;;;;5074456;28;20283;-67
2021/06/17 03:57:00;;;;;;;9.65;8.77;;;19.50;99.90;;;;;;5074564;28;20287;-66
2021/06/17 03:59:31;;;;;;;9.75;8.85;;;19.60;99.90;;;;;;5074388;28;20311;-67
2021/06/17 04:01:59;;;;;;;10.52;9.63;;;19.60;99.90;;;;;;5074242;28;20275;-67
2021/06/17 04:04:27;;;;;;;10.10;9.10;;;19.70;99.90;;;;;;5074117;28;20767;-67
2021/06/17 04:07:02;;;;;;;9.23;8.40;;;19.70;99.90;;;;;;5074475;28;20189;-68
2021/06/17 04:09:32;;;;;;;9.48;8.68;;;19.80;99.90;;;;;;5074059;28;20271;-67
2021/06/17 04:12:03;;;;;;;9.55;8.75;;;19.90;99.90;;;;;;5074265;28;20276;-67
2021/06/17 04:14:32;;;;;;;9.65;8.70;;;20.00;99.90;;;;;;5073828;28;20185;-67
2021/06/17 04:17:02;;;;;;;10.18;9.18;;;20.00;99.90;;;;;;5074220;28;20287;-67
2021/06/17 04:19:32;;;;;;;10.07;8.32;;;20.20;99.90;;;;;;5074075;28;20185;-68
2021/06/17 04:22:04;;;;;;;9.65;8.75;;;20.30;99.90;;;;;;5074302;28;20295;-67
2021/06/17 04:24:38;;;;;;;8.60;7.80;;;20.40;99.90;;;;;;5073852;28;20296;-67
2021/06/17 04:27:06;;;;;;;8.85;8.15;;;20.40;99.90;;;;;;5073681;28;20199;-66
2021/06/17 04:29:38;;;;;;;9.35;7.95;;;20.50;99.90;;;;;;5073766;28;20187;-67
2021/06/17 04:32:08;;;;;;;8.82;7.93;;;20.50;99.90;;;;;;5073744;28;20227;-66
2021/06/17 04:34:37;;;;;;;8.98;8.13;;;20.60;99.90;;;;;;5072393;28;20458;-67
2021/06/17 04:37:10;;;;;;;8.60;7.80;;;20.60;99.90;;;;;;5073556;28;20312;-67
2021/06/17 04:39:38;;;;;;;8.65;7.85;;;20.60;99.90;;;;;;5073630;28;20185;-68
2021/06/17 04:42:07;;;;;;;8.85;8.02;;;20.60;99.90;;;;;;5073676;28;20215;-67
2021/06/17 04:44:39;;;;;;;8.73;7.82;;;20.60;99.90;;;;;;5083022;28;20306;-66
2021/06/17 04:47:08;;;;;;;9.30;8.40;;;20.80;99.90;;;;;;5094430;28;20180;-66
2021/06/17 04:49:38;;;;;;;8.77;8.05;;;20.90;99.90;;;;;;5093986;28;20207;-67
2021/06/17 04:52:13;;;;;;;8.30;7.57;;;21.00;99.90;;;;;;5094467;28;20345;-67
2021/06/17 04:54:40;;;;;;;10.73;7.50;;;21.50;99.90;;;;;;5093968;28;20198;-66
2021/06/17 04:57:08;;;;;;;8.80;7.35;;;23.00;99.90;;;;;;5094295;28;20210;-67
2021/06/17 04:59:36;;;;;;;10.43;7.80;;;25.00;99.90;;;;;;5093750;28;20303;-67
2021/06/17 05:02:05;;;;;;;10.23;6.70;;;26.90;99.90;;;;;;5094159;28;20236;-67
2021/06/17 05:04:34;;;;;;;10.23;6.50;;;28.70;99.90;;;;;;5093883;28;20216;-67
2021/06/17 05:07:22;;;;;;;9.77;5.55;;;30.30;99.90;;;;;;5093790;28;20299;-68
2021/06/17 05:12:37;;;;;;;7.07;5.32;;;;;;;;;;5094078;28;20192;-68
2021/06/17 05:15:06;;;;;;;6.65;4.88;;;;;;;;;;5093736;28;20197;-68
2021/06/17 05:17:36;;;;;;;7.07;5.78;;;;;;;;;;5082758;28;20247;-68
2021/06/17 05:20:05;;;;;;;7.78;5.35;;;;;;;;;;5073081;28;20196;-68
2021/06/17 05:22:34;;;;;;;5.53;5.03;;;;;;;;;;5073316;28;20287;-68
2021/06/17 05:25:04;;;;;;;6.65;5.43;;;;;;;;;;5073460;28;20229;-68
2021/06/17 05:27:32;;;;;;;7.47;5.13;;;;;;;;;;5072860;28;20224;-68
2021/06/17 05:30:01;;;;;;;6.80;5.22;;;;;;;;;;5064070;28;20279;-68
2021/06/17 05:32:29;;;;;;;5.15;4.65;;;;;;;;;;5073006;28;20193;-67
2021/06/17 05:34:57;;;;;;;6.68;4.78;;;;;;;;;;5073202;28;20292;-67
2021/06/17 05:37:26;;;;;;;7.18;5.07;;;;;;;;;;5072959;28;20197;-68
2021/06/17 05:39:54;;;;;;;7.90;5.28;;;;;;;;;;5072890;28;20287;-68
2021/06/17 05:42:24;;;;;;;6.97;5.22;;;;;;;;;;5072850;28;20574;-67
2021/06/17 05:44:53;;;;;;;8.55;5.75;;;;;;;;;;5084534;28;20326;-67
2021/06/17 05:47:21;;;;;;;8.30;5.85;;;;;;;;;;5092998;28;20713;-67
2021/06/17 05:49:49;;;;;;;9.63;6.45;;;;;;;;;;5093164;28;20628;-68
2021/06/17 05:52:17;;;;;;;6.93;6.20;;;;;;;;;;5093184;28;20227;-68
2021/06/17 05:54:46;;;;;;;10.25;6.05;;;;;;;;;;5093027;28;20291;-66
2021/06/17 05:57:13;;;;;;;8.52;6.70;;;28.90;99.90;;;;;;5092757;28;20611;-68
2021/06/17 05:59:43;;;;;;;9.90;6.90;;;28.20;99.90;;;;;;5092899;28;20219;-67
2021/06/17 06:02:11;;;;;;;7.80;6.13;;;27.70;99.90;;;;;;5092950;28;20196;-68
2021/06/17 06:04:39;;;;;;;7.47;6.07;;;27.40;99.90;;;;;;5092853;28;20223;-67
2021/06/17 06:07:07;;;;;;;6.93;6.05;;;27.20;99.90;;;;;;5092740;28;20213;-68
2021/06/17 06:09:34;;;;;;;11.07;6.30;;;27.10;99.90;;;;;;5092624;28;20202;-68
2021/06/17 06:12:04;;;;;;;6.68;5.20;;;26.90;99.90;;;;;;5092628;28;20707;-67
2021/06/17 06:14:32;;;;;;;7.20;5.38;;;26.80;99.90;;;;;;5092678;28;20204;-68
2021/06/17 06:17:01;;;;;;;8.32;5.50;;;26.80;99.90;;;;;;5092790;28;20206;-68
2021/06/17 06:19:30;;;;;;;6.22;5.63;;;26.90;99.90;;;;;;5092752;28;20204;-67
2021/06/17 06:21:58;;;;;;;5.95;5.40;;;27.00;99.90;;;;;;5092749;28;20203;-68
2021/06/17 06:24:26;;;;;;;6.00;5.38;;;27.10;99.90;;;;;;5092566;28;20571;-67
2021/06/17 06:26:58;;;;;;;7.05;5.30;;;27.20;99.90;;;;;;5092215;28;20303;-67
2021/06/17 06:29:26;;;;;;;6.72;4.97;;;27.40;99.90;;;;;;5092549;28;20260;-67
2021/06/17 06:31:55;;;;;;;5.68;5.18;;;27.50;99.90;;;;;;5091368;28;20206;-67
2021/06/17 06:34:24;;;;;;;5.90;5.32;;;27.60;99.90;;;;;;5049494;28;20213;-67
2021/06/17 06:36:53;;;;;;;5.63;5.10;;;27.60;99.90;;;;;;5058903;28;20196;-63
2021/06/17 06:39:21;;;;;;;5.43;4.93;;;27.60;99.90;;;;;;5089328;28;20200;-64
2021/06/17 06:41:51;;;;;;;9.23;5.63;;;27.60;99.90;;;;;;5089266;28;20208;-62
2021/06/17 06:44:19;;;;;;;5.78;4.88;;;27.70;99.90;;;;;;5081221;28;20220;-63
2021/06/17 06:46:46;;;;;;;6.68;5.25;;;27.60;99.90;;;;;;5069408;28;20316;-64
2021/06/17 06:49:14;;;;;;;5.80;5.30;;;27.50;99.90;;;;;;5069332;28;20565;-64
2021/06/17 06:51:44;;;;;;;8.85;5.28;;;27.40;99.90;;;;;;5068998;28;20201;-68
2021/06/17 06:54:12;;;;;;;5.78;5.18;;;27.30;99.90;;;;;;5068862;28;20201;-69
2021/06/17 06:56:40;;;;;;;9.77;5.40;;;27.20;99.90;;;;;;5069823;28;20275;-68
2021/06/17 06:59:08;;;;;;;5.80;5.30;;;27.20;99.90;;;;;;5072816;28;20687;-67
2021/06/17 07:01:37;;;;;;;7.47;5.53;;;27.10;99.90;;;;;;5073349;28;20200;-65
2021/06/17 07:04:05;;;;;;;5.63;5.10;;;27.20;99.90;;;;;;5073064;28;20222;-67
2021/06/17 07:06:34;;;;;;;9.77;5.25;;;27.30;99.90;;;;;;5073196;28;20288;-66
2021/06/17 07:09:04;;;;;;;5.20;4.72;;;27.30;99.90;;;;;;5072689;28;20219;-66
2021/06/17 07:11:32;;;;;;;6.35;5.30;;;27.30;99.90;;;;;;5073037;28;20204;-68
2021/06/17 07:14:00;;;;;;;6.95;5.28;;;27.40;99.90;;;;;;5072829;28;20239;-69
2021/06/17 07:16:28;;;;;;;5.80;4.85;;;27.50;99.90;;;;;;5072809;28;20307;-68
2021/06/17 07:18:56;;;;;;;5.68;4.70;;;27.40;99.90;;;;;;5072799;28;20200;-64
2021/06/17 07:21:24;;;;;;;6.07;4.75;;;27.40;99.90;;;;;;5072993;28;20617;-68
2021/06/17 07:23:53;;;;;;;5.20;4.70;;;27.50;99.90;;;;;;5072260;28;20243;-70
2021/06/17 07:26:27;;;;;;;5.38;4.70;;;27.50;99.90;;;;;;5072508;28;20248;-69
2021/06/17 07:28:55;;;;;;;6.18;4.90;;;27.60;99.90;;;;;;5072034;28;20220;-69
2021/06/17 07:31:23;;;;;;;6.03;5.43;;;27.60;99.90;;;;;;5072270;28;20239;-68
2021/06/17 07:33:51;;;;;;;6.10;5.03;;;27.70;99.90;;;;;;5072170;28;20686;-68
2021/06/17 07:36:19;;;;;;;8.65;5.50;;;27.70;99.90;;;;;;5072124;28;20679;-68
2021/06/17 07:38:47;;;;;;;6.10;5.13;;;27.70;99.90;;;;;;5072213;28;20197;-69
2021/06/17 07:41:15;;;;;;;5.95;4.95;;;27.80;99.90;;;;;;5071710;28;20619;-68
2021/06/17 07:43:44;;;;;;;5.85;4.90;;;27.80;99.90;;;;;;5074531;28;20307;-68
2021/06/17 07:46:12;;;;;;;6.88;5.10;;;27.80;99.90;;;;;;5092183;28;20212;-69
2021/06/17 07:48:40;;;;;;;5.60;5.13;;;27.80;99.90;;;;;;5091883;28;20219;-69
2021/06/17 07:51:09;;;;;;;5.72;4.78;;;27.80;99.90;;;;;;5092387;28;20251;-68
2021/06/17 07:53:37;;;;;;;6.72;5.00;;;27.70;99.90;;;;;;5092299;28;20204;-68
2021/06/17 07:56:05;;;;;;;5.43;4.93;;;27.70;99.90;;;;;;5092270;28;20208;-64
2021/06/17 07:58:33;;;;;;;8.18;5.00;;;27.70;99.90;;;;;;5092007;28;20206;-65
2021/06/17 08:01:04;;;;;;;5.68;4.95;;;27.60;99.90;;;;;;5091788;28;20942;-64
2021/06/17 08:03:32;;;;;;;6.95;5.22;;;27.60;99.90;;;;;;5091916;28;20220;-63
2021/06/17 08:06:00;;;;;;;6.13;5.10;;;27.60;99.90;;;;;;5091907;28;20734;-64
2021/06/17 08:08:28;;;;;;;6.35;5.20;;;27.70;99.90;;;;;;5091089;28;20556;-63
2021/06/17 08:10:56;;;;;;;5.70;5.00;;;27.70;99.90;;;;;;5091904;28;20200;-63
2021/06/17 08:13:24;;;;;;;8.45;5.50;;;27.70;99.90;;;;;;5091914;28;20285;-63
2021/06/17 08:15:52;;;;;;;6.70;5.20;;;27.80;99.90;;;;;;5091724;28;20626;-64
2021/06/17 08:18:21;;;;;;;6.40;5.10;;;27.80;99.90;;;;;;5091543;28;20298;-63
2021/06/17 08:20:50;;;;;;;5.63;5.13;;;27.90;99.90;;;;;;5091935;28;20613;-66
2021/06/17 08:23:19;;;;;;;6.13;5.25;;;27.90;99.90;;;;;;5091404;28;20714;-64
2021/06/17 08:25:47;;;;;;;5.80;5.20;;;28.10;99.90;;;;;;5091395;28;20339;-66
2021/06/17 08:28:15;;;;;;;7.38;5.72;;;28.10;99.90;;;;;;5090907;28;20235;-65
2021/06/17 08:30:43;;;;;;;4.72;4.32;;;28.10;99.90;;;;;;5091172;28;20727;-66
2021/06/17 08:33:13;;;;;;;5.93;4.95;;;28.20;99.90;;;;;;5091034;28;20746;-69
2021/06/17 08:35:42;;;;;;;6.70;4.85;;;28.30;99.90;;;;;;5091319;28;20235;-69
2021/06/17 08:38:10;;;;;;;5.25;4.78;;;28.30;99.90;;;;;;5090995;28;20242;-68
2021/06/17 08:40:38;;;;;;;5.00;4.50;;;28.30;99.90;;;;;;5091101;28;20204;-69
2021/06/17 08:43:06;;;;;;;5.93;5.22;;;28.30;99.90;;;;;;5091549;28;20287;-69
2021/06/17 08:45:34;;;;;;;5.63;4.50;;;28.30;99.90;;;;;;5072924;28;20307;-67
2021/06/17 08:48:02;;;;;;;5.20;4.70;;;28.30;99.90;;;;;;5070981;28;20197;-70
2021/06/17 08:50:30;;;;;;;5.43;4.93;;;28.30;99.90;;;;;;5070894;28;20850;-70
2021/06/17 08:53:00;;;;;;;6.43;4.95;;;28.30;99.90;;;;;;5070705;28;20295;-65
2021/06/17 08:55:29;;;;;;;9.00;5.97;;;28.40;99.90;;;;;;5070985;28;20244;-67
2021/06/17 08:57:58;;;;;;;6.13;5.00;;;28.40;99.90;;;;;;5070647;28;20300;-65
2021/06/17 09:00:46;;;;;;;6.20;4.90;;;28.40;99.90;;;;;;5070606;28;20319;-66
2021/06/17 09:03:15;;;;;;;4.90;4.43;;;28.40;99.90;;;;;;5070578;28;20187;-65
2021/06/17 09:05:45;;;;;;;7.45;5.00;;;28.40;99.90;;;;;;5070443;28;20319;-70
2021/06/17 09:08:15;;;;;;;6.57;4.90;;;28.50;99.90;;;;;;5070240;28;20726;-68
2021/06/17 09:10:44;;;;;;;4.85;4.45;;;28.60;99.90;;;;;;5070742;28;20270;-63
2021/06/17 09:13:12;;;;;;;5.50;5.00;;;28.60;99.90;;;;;;5070243;28;20211;-67
2021/06/17 09:15:43;;;;;;;5.13;4.57;;;28.60;99.90;;;;;;5070467;28;20201;-67
2021/06/17 09:18:19;;;;;;;5.18;4.50;;;28.60;99.90;;;;;;5070099;28;20209;-68
2021/06/17 09:20:50;;;;;;;5.35;4.85;;;28.70;99.90;;;;;;5069472;28;20231;-68
2021/06/17 09:23:35;;;;;;;5.03;4.43;;;28.70;99.90;;;;;;5070173;28;20611;-73
2021/06/17 09:26:07;;;;;;;5.45;4.88;;;28.80;99.90;;;;;;5070417;28;20296;-67
2021/06/17 09:28:55;;;;;;;7.13;4.40;;;28.90;99.90;;;;;;5070143;28;20256;-66
2021/06/17 09:31:25;;;;;;;5.63;4.80;;;28.90;99.90;;;;;;5070243;28;20193;-67
2021/06/17 09:33:54;;;;;;;5.88;5.28;;;28.90;99.90;;;;;;5070367;28;20207;-66
2021/06/17 09:36:24;;;;;;;7.43;5.05;;;28.90;99.90;;;;;;5069870;28;20664;-66
2021/06/17 09:38:55;;;;;;;5.70;5.20;;;29.00;99.90;;;;;;5070148;28;20204;-66
2021/06/17 09:41:31;;;;;;;5.47;5.07;;;29.00;99.90;;;;;;5069905;28;20185;-67
2021/06/17 09:43:59;;;;;;;4.97;4.65;;;29.10;99.90;;;;;;5074597;28;20229;-67
2021/06/17 09:46:27;;;;;;;7.88;5.40;;;29.20;99.90;;;;;;5090126;28;20415;-66
2021/06/17 09:49:02;;;;;;;5.35;4.85;;;29.30;99.90;;;;;;5090307;28;20252;-65
2021/06/17 09:51:37;;;;;;;5.60;4.82;;;29.30;99.90;;;;;;5090316;28;20207;-68
2021/06/17 09:54:17;;;;;;;5.78;5.18;;;29.30;99.90;;;;;;5089802;28;20219;-68
2021/06/17 09:56:50;;;;;;;6.15;5.40;;;29.30;99.90;;;;;;5090067;28;20188;-68
2021/06/17 09:59:33;;;;;;;6.50;5.90;;;29.30;99.90;;;;;;5089767;28;20659;-68
2021/06/17 10:02:00;;;;;;;6.43;5.80;;;29.30;99.90;;;;;;5089793;28;20275;-68
2021/06/17 10:04:28;;;;;;;6.32;5.50;;;29.20;99.90;;;;;;5089624;28;20296;-68
2021/06/17 10:06:57;;;;;;;5.18;4.75;;;29.30;99.90;;;;;;5089686;28;20764;-73
2021/06/17 10:09:26;;;;;;;6.88;5.35;;;29.30;99.90;;;;;;5089551;28;20200;-65
2021/06/17 10:11:54;;;;;;;6.00;5.40;;;29.40;99.90;;;;;;5090040;28;20223;-70
2021/06/17 10:14:22;;;;;;;5.97;5.35;;;29.40;99.90;;;;;;5089384;28;20391;-70
2021/06/17 10:16:50;;;;;;;5.78;4.82;;;29.40;99.90;;;;;;5090054;28;20220;-69
2021/06/17 10:19:19;;;;;;;5.97;5.47;;;29.40;99.90;;;;;;5090164;28;20200;-74
2021/06/17 10:21:48;;;;;;;5.35;4.95;;;29.50;99.90;;;;;;5090179;28;20196;-71
2021/06/17 10:24:18;;;;;;;6.55;5.20;;;29.40;99.90;;;;;;5088957;28;20195;-73
2021/06/17 10:26:49;;;;;;;5.80;5.22;;;29.50;99.90;;;;;;5089636;28;20239;-72
2021/06/17 10:29:39;;;;;;;5.10;4.70;;;29.50;99.90;;;;;;5089171;28;20231;-65
2021/06/17 10:32:09;;;;;;;5.72;5.22;;;29.50;99.90;;;;;;5089671;28;20200;-66
2021/06/17 10:34:39;;;;;;;5.28;4.50;;;29.50;99.90;;;;;;5089452;28;20199;-71
2021/06/17 10:37:12;;;;;;;5.78;5.10;;;29.60;99.90;;;;;;5089176;28;20203;-72
2021/06/17 10:39:42;;;;;;;5.45;4.90;;;29.60;99.90;;;;;;5088661;28;20275;-76
2021/06/17 10:42:19;;;;;;;5.43;4.78;;;29.70;99.80;;;;;;5089259;28;20235;-74
2021/06/17 10:44:50;;;;;;;5.18;4.72;;;29.60;99.80;;;;;;5078061;28;20622;-75
2021/06/17 10:48:03;;;;;;;5.43;4.97;;;29.60;99.80;;;;;;5069464;28;20217;-66
2021/06/17 10:50:49;;;;;;;5.80;4.78;;;29.60;99.90;;;;;;5069347;28;20185;-64
2021/06/17 10:53:28;;;;;;;5.10;4.70;;;29.60;98.80;;;;;;5069307;28;20193;-69
2021/06/17 10:56:01;;;;;;;6.13;4.85;;;29.80;99.60;;;;;;5069436;28;20213;-69
2021/06/17 10:58:58;;;;;;;5.30;4.80;;;29.90;99.10;;;;;;5068145;28;20535;-69
2021/06/17 11:01:31;;;;;;;5.88;5.13;;;30.00;98.30;;;;;;5011539;28;20656;-69
2021/06/17 11:04:08;;;;;;;5.03;4.55;;;29.80;98.10;;;;;;5068788;28;20188;-69
2021/06/17 11:07:17;;;;;;;6.75;5.28;;;29.90;98.80;;;;;;5069127;28;20303;-70
2021/06/17 11:10:05;;;;;;;5.38;4.88;;;29.90;98.20;;;;;;5068454;28;20195;-70
2021/06/17 11:13:00;;;;;;;4.80;4.40;;;29.90;98.50;;;;;;5068962;28;20208;-71
2021/06/17 11:15:57;;;;;;;4.72;4.20;;;29.90;97.90;;;;;;5068411;28;20196;-70
2021/06/17 11:18:55;;;;;;;4.68;4.28;;;30.00;98.00;;;;;;5068536;28;20204;-71
2021/06/17 11:21:42;;;;;;;5.03;4.60;;;30.10;97.90;;;;;;5068694;28;20193;-70
2021/06/17 11:24:30;;;;;;;5.20;4.70;;;30.20;97.30;;;;;;5068659;28;20197;-70
2021/06/17 11:26:58;;;;;;;5.22;4.53;;;30.30;97.50;;;;;;5068133;28;20688;-69
2021/06/17 11:29:57;;;;;;;5.80;4.70;;;30.30;95.30;;;;;;5068261;28;20240;-70
2021/06/17 11:32:32;;;;;;;5.15;4.43;;;30.20;95.20;;;;;;5068894;28;20358;-70
2021/06/17 11:35:01;;;;;;;4.53;4.13;;;30.10;94.40;;;;;;5068853;28;20218;-70
2021/06/17 11:37:33;;;;;;;5.10;4.60;;;30.20;95.00;;;;;;5068685;28;20318;-69
2021/06/17 11:40:01;;;;;;;5.53;5.10;;;30.20;95.50;;;;;;5068778;28;20208;-71
2021/06/17 11:42:29;;;;;;;4.75;4.35;;;30.30;95.40;;;;;;5068881;28;20201;-70
2021/06/17 11:45:03;;;;;;;5.10;4.70;;;30.40;95.10;;;;;;5084721;28;20195;-70
2021/06/17 11:47:32;;;;;;;5.07;4.45;;;30.40;94.60;;;;;;5092377;28;20226;-70
2021/06/17 11:50:06;;;;;;;5.20;4.78;;;30.40;94.70;;;;;;5092530;28;20250;-70
2021/06/17 11:52:40;;;;;;;4.65;4.35;;;30.30;95.10;;;;;;5072441;28;20288;-69
2021/06/17 11:55:10;;;;;;;4.50;4.18;;;30.30;95.10;;;;;;5072003;28;20753;-64
2021/06/17 11:57:40;;;;;;;4.78;4.38;;;30.40;95.10;;;;;;5071642;28;20203;-65
2021/06/17 12:00:10;;;;;;;5.18;4.68;;;30.50;94.90;;;;;;5071570;28;20224;-65
2021/06/17 12:02:53;;;;;;;5.35;4.82;;;30.50;94.80;;;;;;5073453;28;20201;-64
2021/06/17 12:05:22;;;;;;;5.32;4.57;;;30.40;94.80;;;;;;5075379;28;20227;-63
2021/06/17 12:07:51;;;;;;;4.88;4.18;;;30.40;95.50;;;;;;5092274;28;20220;-62
2021/06/17 12:10:21;;;;;;;5.03;4.50;;;30.50;94.70;;;;;;5092489;28;20208;-63
2021/06/17 12:12:52;;;;;;;4.80;4.40;;;30.50;94.50;;;;;;5092196;28;20254;-64
2021/06/17 12:15:22;;;;;;;4.72;4.07;;;30.70;94.20;;;;;;5091668;28;20200;-64
2021/06/17 12:17:53;;;;;;;4.80;4.40;;;30.70;95.00;;;;;;5092114;28;20202;-66
2021/06/17 12:20:26;;;;;;;5.15;4.65;;;30.70;95.30;;;;;;5092006;28;20206;-63
2021/06/17 12:23:11;;;;;;;4.50;4.10;;;30.70;94.80;;;;;;5091881;28;20279;-64
2021/06/17 12:25:42;;;;;;;4.80;4.40;;;30.60;95.50;;;;;;5092026;28;20191;-64
2021/06/17 12:28:12;;;;;;;5.53;4.40;;;30.70;95.50;;;;;;5091912;28;20223;-64
2021/06/17 12:30:42;;;;;;;4.55;4.20;;;30.80;94.80;;;;;;5091781;28;20279;-64
2021/06/17 12:33:13;;;;;;;5.15;4.75;;;30.80;95.00;;;;;;5092021;28;20287;-66
2021/06/17 12:35:45;;;;;;;4.78;4.45;;;30.80;94.20;;;;;;5091642;28;20751;-66
2021/06/17 12:38:22;;;;;;;4.80;4.40;;;30.90;94.70;;;;;;5091391;28;20636;-66
2021/06/17 12:40:50;;;;;;;5.35;4.55;;;30.80;94.90;;;;;;5091726;28;20646;-67
2021/06/17 12:43:24;;;;;;;4.55;4.25;;;30.80;95.00;;;;;;5091492;28;20184;-66
2021/06/17 12:46:04;;;;;;;4.80;4.40;;;30.80;95.30;;;;;;5091586;28;20295;-64
2021/06/17 12:54:26;;;;;;;6.82;4.15;;;30.70;95.60;;;;;;5090417;28;20184;-59
2021/06/17 12:56:56;;;;;;;4.72;4.32;;;30.70;95.00;;;;;;5091415;28;20218;-60
2021/06/17 12:59:39;;;;;;;5.03;4.30;;;30.80;94.90;;;;;;5090728;28;20659;-60
2021/06/17 13:02:08;;;;;;;5.13;4.03;;;30.80;94.40;;;;;;5090989;28;20632;-68
2021/06/17 13:04:37;;;;;;;5.38;4.30;;;30.70;95.10;;;;;;5090841;28;20208;-59
2021/06/17 13:07:17;;;;;;;5.25;4.35;;;30.70;94.20;;;;;;5090861;28;20718;-59
2021/06/17 13:09:46;;;;;;;4.32;3.92;;;30.60;93.40;;;;;;5090667;28;20622;-59
2021/06/17 13:12:19;;;;;;;4.50;4.05;;;30.60;94.00;;;;;;5090685;28;20628;-60
2021/06/17 13:15:06;;;;;;;4.63;3.80;;;30.70;94.10;;;;;;5090757;28;20251;-65
2021/06/17 13:17:36;;;;;;;4.72;4.30;;;30.70;93.60;;;;;;5090997;28;20223;-64